Latest Weather Observations for Southern Cross Airport

IDW60801

Issued at 4:04 pm WST Monday 23 January 2017 (issued every 30 minutes, with the page automatically refreshed every 10 minutes)

About weather observations | Map of weather stations | Latest weather observations for WA | Other Formats
Station Details ID: 012320 Name: SOUTHERN CROSS AIRFIELD Lat: -31.24 Lon: 119.36 Height: 347.4 m
Data from the previous 72 hours. | See also: Recent months at Southern Cross Airport
Date/Time
WST
Temp
°C
App
Temp
°C
Dew
Point
°C
Rel
Hum
%
Delta-T
°C
Wind Press
QNH
hPa
Press
MSL
hPa
Rain since
9am
mm
Dir  Spd
km/h
Gust
km/h
Spd
kts
Gust
kts
23/04:00pm 28.9 22.7 2.2 18 13.4 S 24 28 13 15 1013.1 1011.0 -
23/03:30pm 29.6 23.0 2.0 17 13.8 S 26 39 14 21 1013.1 1011.0 0.0
23/03:00pm 28.7 22.4 1.3 17 13.5 S 24 35 13 19 1013.3 1011.2 0.0
23/02:30pm 28.3 23.0 1.7 18 13.1 S 19 33 10 18 1013.5 1011.4 0.0
23/02:00pm 27.7 21.3 1.2 18 12.9 S 24 32 13 17 1013.8 1011.7 0.0
23/01:30pm 27.7 21.5 2.0 19 12.7 SSW 24 39 13 21 1013.9 1011.8 0.0
23/01:00pm 26.5 21.1 2.4 21 11.9 SSE 20 32 11 17 1014.2 1012.2 0.0
23/12:30pm 26.8 21.6 3.3 22 11.8 SSW 20 30 11 16 1014.3 1012.3 0.0
23/12:00pm 24.9 20.0 5.2 28 10.1 S 20 32 11 17 1014.8 1012.7 0.0
23/11:30am 24.0 18.0 5.4 30 9.6 S 26 35 14 19 1015.0 1012.9 0.0
23/11:00am 23.8 18.7 6.1 32 9.2 S 22 41 12 22 1015.2 1013.1 0.0
23/10:30am 22.7 17.5 7.3 37 8.1 SSE 24 43 13 23 1015.5 1013.4 0.0
23/10:00am 22.1 16.9 7.1 38 7.8 S 24 32 13 17 1015.6 1013.5 0.0
23/09:30am 20.5 16.1 7.2 42 6.9 S 20 30 11 16 1015.6 1013.5 0.0
23/09:00am 19.8 15.0 7.2 44 6.5 SSE 22 32 12 17 1015.7 1013.6 0.0
23/08:30am 19.0 13.4 7.1 46 6.1 SSE 26 35 14 19 1015.8 1013.7 0.0
23/08:00am 18.9 12.8 6.7 45 6.2 SSE 28 35 15 19 1015.8 1013.7 0.0
23/07:30am 17.5 11.0 6.7 49 5.5 SSE 30 39 16 21 1015.6 1013.5 0.0
23/07:00am 16.9 11.2 6.7 51 5.1 SSE 26 39 14 21 1015.2 1013.1 0.0
23/06:30am 16.5 11.9 6.6 52 5.0 SSE 20 28 11 15 1014.8 1012.7 0.0
23/06:00am 15.6 11.2 7.6 59 4.1 SSE 20 28 11 15 1014.2 1012.2 0.0
23/05:30am 15.0 10.4 8.3 64 3.4 SSE 22 28 12 15 1013.6 1011.5 0.0
23/05:00am 15.1 10.5 9.5 69 2.9 S 24 30 13 16 1013.3 1011.2 0.0
23/04:30am 15.9 12.4 10.2 69 3.1 S 19 22 10 12 1012.9 1010.8 0.0
23/04:00am 16.3 12.3 10.6 69 3.1 SSE 22 30 12 16 1012.3 1010.2 0.0
23/03:30am 16.5 13.2 11.0 70 3.0 SSE 19 26 10 14 1011.8 1009.7 0.0
23/03:00am 16.6 13.4 11.1 70 3.0 SSE 19 24 10 13 1011.7 1009.6 0.0
23/02:30am 16.9 14.0 11.0 68 3.2 SSE 17 24 9 13 1011.7 1009.6 0.0
23/02:00am 17.1 12.8 10.9 67 3.4 SSE 24 30 13 16 1011.4 1009.3 0.0
23/01:30am 17.5 13.2 10.9 65 3.6 SSE 24 32 13 17 1011.6 1009.4 0.0
23/01:00am 18.1 12.4 11.2 64 3.8 SSE 32 37 17 20 1011.1 1009.0 0.0
23/12:30am 19.6 15.1 12.6 64 4.0 SSE 28 39 15 21 1010.8 1008.7 0.0
23/12:00am 20.3 16.1 12.3 60 4.6 SSE 26 33 14 18 1010.4 1008.3 0.0
 
Date/Time
WST
Temp
°C
App
Temp
°C
Dew
Point
°C
Rel
Hum
%
Delta-T
°C
Wind Press
QNH
hPa
Press
MSL
hPa
Rain since
9am
mm
Dir  Spd
km/h
Gust
km/h
Spd
kts
Gust
kts
22/11:30pm 21.2 16.6 12.3 57 5.1 SSE 28 39 15 21 1009.9 1007.8 0.0
22/11:00pm 22.7 17.7 12.3 52 6.0 SE 30 39 16 21 1009.6 1007.5 0.0
22/10:30pm 24.1 19.0 11.8 46 7.1 SE 30 35 16 19 1009.4 1007.3 0.0
22/10:00pm 25.6 21.4 11.0 40 8.4 SE 24 30 13 16 1009.1 1007.0 0.0
22/09:30pm 27.8 23.2 5.4 24 11.8 S 19 24 10 13 1008.4 1006.3 0.0
22/09:00pm 28.7 23.1 5.5 23 12.3 SSW 24 30 13 16 1008.3 1006.2 0.0
22/08:30pm 29.4 24.2 5.5 22 12.7 SSW 22 28 12 15 1008.1 1006.0 0.0
22/08:00pm 30.1 25.3 5.4 21 13.2 SSW 20 26 11 14 1007.5 1005.4 0.0
22/07:30pm 30.9 26.0 5.3 20 13.7 SW 20 28 11 15 1007.2 1005.1 0.0
22/07:00pm 31.9 25.4 4.6 18 14.5 SSW 28 33 15 18 1006.8 1004.7 0.0
22/06:30pm 32.9 27.3 5.5 18 14.8 SW 24 32 13 17 1006.4 1004.2 0.0
22/06:00pm 33.4 26.9 6.6 19 14.8 SW 30 37 16 20 1005.9 1003.7 0.0
22/05:30pm 33.9 27.3 7.8 20 14.7 SW 32 43 17 23 1005.4 1003.3 0.0
22/05:00pm 34.4 28.3 8.2 20 15.0 SW 30 46 16 25 1005.2 1003.1 0.0
22/04:30pm 34.8 27.8 8.5 20 15.1 SW 35 52 19 28 1004.9 1002.8 0.0
22/04:00pm 35.5 28.8 8.3 19 15.6 SW 33 46 18 25 1005.0 1002.9 0.0
22/03:30pm 36.5 29.5 8.4 18 16.2 SW 35 43 19 23 1004.8 1002.7 0.0
22/03:00pm 35.8 29.2 8.6 19 15.7 SW 33 56 18 30 1005.1 1003.0 0.0
22/02:53pm 36.3 30.0 9.0 19 15.9 SW 32 50 17 27 1005.1 1003.0 0.0
22/02:30pm 35.7 29.1 8.5 19 15.6 SW 33 46 18 25 1005.3 1003.2 0.0
22/02:00pm 35.6 29.2 9.2 20 15.4 SW 33 46 18 25 1005.3 1003.2 0.0
22/01:30pm 35.4 30.2 10.4 22 14.8 SW 28 41 15 22 1005.4 1003.3 0.0
22/01:00pm 35.1 29.9 10.2 22 14.7 SW 28 54 15 29 1005.6 1003.4 0.0
22/12:30pm 35.0 29.6 10.8 23 14.4 WSW 30 52 16 28 1005.4 1003.3 0.0
22/12:23pm 36.1 30.9 10.3 21 15.3 WSW 28 52 15 28 1005.2 1003.1 0.0
22/12:00pm 36.7 32.2 10.1 20 15.8 SW 24 37 13 20 1005.2 1003.1 0.0
22/11:30am 36.9 32.4 10.2 20 15.8 W 24 33 13 18 1005.3 1003.2 0.0
22/11:00am 35.5 30.9 11.2 23 14.6 W 26 37 14 20 1005.4 1003.3 0.0
22/10:30am 35.7 31.4 13.2 26 13.9 W 28 39 15 21 1005.3 1003.2 0.0
22/10:00am 35.1 30.8 13.3 27 13.5 NNW 28 39 15 21 1005.4 1003.3 0.0
22/09:57am 34.8 30.8 13.0 26 13.4 NNW 26 39 14 21 1005.4 1003.3 0.0
22/09:30am 33.7 31.7 11.5 26 13.2 NNW 13 20 7 11 1005.6 1003.4 0.0
22/09:00am 32.3 29.2 11.5 28 12.4 NNW 19 24 10 13 1005.8 1003.6 0.0
22/08:30am 31.8 29.0 12.6 31 11.6 NNW 19 28 10 15 1005.8 1003.6 0.0
22/08:00am 30.1 26.8 11.6 32 10.9 N 20 28 11 15 1005.8 1003.6 0.0
22/07:30am 29.3 26.0 10.9 32 10.7 NNE 19 28 10 15 1005.6 1003.4 0.0
22/07:00am 27.7 25.0 9.0 31 10.5 NE 13 17 7 9 1005.7 1003.5 0.0
22/06:30am 25.8 24.0 7.9 32 9.7 E 7 9 4 5 1005.6 1003.4 0.0
22/06:00am 23.5 21.2 7.6 36 8.5 SE 9 13 5 7 1005.2 1003.1 0.0
22/05:30am 22.1 20.0 8.2 41 7.4 SE 9 11 5 6 1005.2 1003.1 0.0
22/05:00am 22.7 20.7 8.8 41 7.6 SE 9 13 5 7 1005.1 1003.0 0.0
22/04:30am 22.9 20.6 9.0 41 7.6 SSE 11 13 6 7 1005.0 1002.9 0.0
22/04:00am 23.0 20.8 9.4 42 7.5 SSE 11 15 6 8 1005.0 1002.9 0.0
22/03:30am 22.4 19.8 9.2 43 7.2 SE 13 15 7 8 1004.9 1002.8 0.0
22/03:00am 23.1 21.3 9.5 42 7.5 ESE 9 11 5 6 1005.2 1003.1 0.0
22/02:30am 23.9 22.0 9.1 39 8.1 SE 9 11 5 6 1005.2 1003.1 0.0
22/02:00am 24.7 23.2 8.6 36 8.8 SSE 6 11 3 6 1005.4 1003.3 0.0
22/01:30am 25.2 22.5 9.1 36 8.9 SE 13 17 7 9 1005.6 1003.4 0.0
22/01:00am 25.6 22.9 9.0 35 9.2 SE 13 15 7 8 1005.6 1003.4 0.0
22/12:30am 26.4 23.2 8.4 32 9.9 SE 15 17 8 9 1005.7 1003.5 0.0
22/12:00am 27.2 24.7 8.1 30 10.5 ESE 11 15 6 8 1005.9 1003.7 0.0
 
Date/Time
WST
Temp
°C
App
Temp
°C
Dew
Point
°C
Rel
Hum
%
Delta-T
°C
Wind Press
QNH
hPa
Press
MSL
hPa
Rain since
9am
mm
Dir  Spd
km/h
Gust
km/h
Spd
kts
Gust
kts
21/11:30pm 28.0 23.7 7.8 28 11.1 SE 20 24 11 13 1005.9 1003.7 0.0
21/11:00pm 29.3 23.2 6.7 24 12.3 SE 28 37 15 20 1005.8 1003.6 0.0
21/10:30pm 30.7 26.2 4.4 19 13.8 SE 17 26 9 14 1005.8 1003.6 0.0
21/10:00pm 31.2 26.1 4.1 18 14.3 SSE 20 26 11 14 1005.7 1003.5 0.0
21/09:30pm 31.8 26.8 4.6 18 14.4 SSE 20 26 11 14 1005.6 1003.4 0.0
21/09:00pm 30.9 28.4 6.7 22 13.3 SE 9 11 5 6 1005.3 1003.2 0.0
21/08:30pm 31.0 28.0 6.1 21 13.5 SE 11 13 6 7 1005.1 1003.0 0.0
21/08:00pm 32.7 29.5 6.8 20 14.4 SSE 13 15 7 8 1004.9 1002.8 0.0
21/07:30pm 34.4 31.4 7.5 19 15.1 SSE 13 15 7 8 1004.7 1002.6 0.0
21/07:00pm 35.3 32.2 7.4 18 15.8 S 13 19 7 10 1004.6 1002.5 0.0
21/06:30pm 36.1 33.2 8.0 18 16.1 S 13 20 7 11 1004.4 1002.3 0.0
21/06:00pm 36.4 32.9 7.4 17 16.5 S 15 22 8 12 1004.2 1002.1 0.0
21/05:30pm 37.3 35.2 8.2 17 16.8 SSW 9 17 5 9 1004.0 1001.9 0.0
21/05:00pm 37.2 35.1 8.1 17 16.8 SE 9 15 5 8 1003.9 1001.8 0.0
21/04:30pm 36.7 34.7 8.5 18 16.3 E 9 19 5 10 1004.0 1001.9 0.0
21/04:00pm 36.4 32.8 8.3 18 16.2 SW 17 28 9 15 1004.3 1002.2 0.0
21/03:30pm 36.7 34.3 8.5 18 16.3 NE 11 19 6 10 1004.5 1002.4 0.0
21/03:00pm 35.8 33.0 8.6 19 15.7 E 13 19 7 10 1004.9 1002.8 0.0
21/02:30pm 35.9 33.9 8.7 19 15.7 SSW 9 17 5 9 1005.3 1003.2 0.0
21/02:00pm 36.2 32.9 8.1 18 16.1 SW 15 22 8 12 1005.8 1003.6 0.0
21/01:30pm 35.6 32.8 8.4 19 15.6 SW 13 20 7 11 1006.2 1004.0 0.0
21/01:00pm 35.7 34.0 8.5 19 15.7 ESE 7 17 4 9 1006.6 1004.5 0.0
21/12:30pm 34.9 32.5 10.0 22 14.6 NE 13 20 7 11 1007.1 1005.0 0.0
21/12:00pm 34.2 32.7 10.7 24 13.9 WSW 9 15 5 8 1007.5 1005.4 0.0
21/11:30am 34.1 33.0 11.9 26 13.3 NW 9 19 5 10 1007.9 1005.8 0.0
21/11:00am 32.3 31.0 12.5 30 12.0 N 11 17 6 9 1008.3 1006.2 0.0
21/10:30am 31.9 30.3 12.7 31 11.6 NE 13 19 7 10 1008.7 1006.5 0.0
21/10:00am 30.3 27.9 12.7 34 10.6 N 17 22 9 12 1008.9 1006.7 0.0
21/09:30am 29.1 26.7 12.5 36 9.9 NNE 17 22 9 12 1009.2 1007.1 0.0
21/09:00am 28.1 25.3 12.5 38 9.3 NE 19 30 10 16 1009.5 1007.4 0.0
21/08:30am 26.4 23.1 11.7 40 8.5 NE 20 28 11 15 1009.7 1007.6 0.0
21/08:00am 25.0 21.2 11.2 42 7.9 NE 22 32 12 17 1009.9 1007.8 0.0
21/07:30am 24.3 21.2 10.2 41 7.9 ENE 17 24 9 13 1010.1 1008.0 0.0
21/07:00am 21.7 18.1 9.9 47 6.5 E 19 24 10 13 1010.1 1008.0 0.0
21/06:30am 20.9 18.4 9.8 49 6.1 ESE 13 19 7 10 1010.1 1008.0 0.0
21/06:00am 18.9 16.7 9.4 54 5.1 SE 11 13 6 7 1009.9 1007.8 0.0
21/05:30am 18.4 16.1 8.9 54 5.0 SE 11 13 6 7 1009.6 1007.5 0.0
21/05:00am 18.7 16.0 8.9 53 5.2 ESE 13 15 7 8 1009.3 1007.2 0.0
21/04:30am 19.4 16.7 9.0 51 5.6 SE 13 19 7 10 1009.1 1007.0 0.0
21/04:00am 19.4 16.9 8.4 49 5.8 SE 11 15 6 8 1008.7 1006.5 0.0
21/03:30am 20.4 17.6 8.4 46 6.4 SE 13 17 7 9 1008.7 1006.5 0.0
21/03:00am 20.9 17.7 8.5 45 6.6 SE 15 17 8 9 1008.4 1006.3 0.0
21/02:30am 21.9 18.8 8.8 43 7.1 SE 15 17 8 9 1008.6 1006.4 0.0
21/02:00am 21.8 19.3 8.0 41 7.3 SE 11 13 6 7 1008.9 1006.7 0.0
21/01:30am 22.5 20.2 7.5 38 7.9 ESE 9 13 5 7 1009.1 1007.0 0.0
21/01:00am 22.8 20.0 7.0 36 8.3 E 11 15 6 8 1009.1 1007.0 0.0
21/12:30am 23.4 19.8 6.7 34 8.7 E 15 19 8 10 1009.2 1007.1 0.0
21/12:00am 23.7 20.3 6.0 32 9.2 ESE 13 19 7 10 1009.2 1007.1 0.0
 
Date/Time
WST
Temp
°C
App
Temp
°C
Dew
Point
°C
Rel
Hum
%
Delta-T
°C
Wind Press
QNH
hPa
Press
MSL
hPa
Rain since
9am
mm
Dir  Spd
km/h
Gust
km/h
Spd
kts
Gust
kts
20/11:30pm 24.2 19.6 5.5 30 9.6 E 19 26 10 14 1009.3 1007.2 0.0
20/11:00pm 24.7 20.3 5.0 28 10.1 ESE 17 24 9 13 1009.3 1007.2 0.0
20/10:30pm 25.0 20.5 4.2 26 10.5 ESE 17 22 9 12 1009.6 1007.5 0.0
20/10:00pm 25.2 20.2 3.8 25 10.8 SE 19 22 10 12 1009.6 1007.5 0.0
20/09:30pm 26.0 20.9 3.9 24 11.2 SE 20 24 11 13 1009.5 1007.4 0.0
20/09:00pm 26.9 21.4 4.0 23 11.7 SE 22 26 12 14 1009.3 1007.2 0.0
20/08:30pm 27.8 22.6 3.5 21 12.4 SE 20 28 11 15 1009.0 1006.8 0.0
20/08:00pm 28.6 23.6 1.2 17 13.5 SE 17 19 9 10 1008.6 1006.4 0.0
20/07:30pm 30.1 25.0 0.6 15 14.5 SSE 17 22 9 12 1008.3 1006.2 0.0
20/07:00pm 30.9 26.1 0.3 14 15.1 SSE 15 20 8 11 1008.1 1006.0 0.0
20/06:30pm 31.7 25.9 -1.2 12 15.8 S 19 24 10 13 1007.8 1005.7 0.0
20/06:00pm 32.2 26.9 -0.8 12 16.1 SSE 17 24 9 13 1007.4 1005.3 0.0
20/05:30pm 32.7 28.0 -1.6 11 16.5 S 13 20 7 11 1007.2 1005.1 0.0
20/05:00pm 32.2 27.3 -0.8 12 16.1 S 15 20 8 11 1007.1 1005.0 0.0
20/04:30pm 32.9 28.3 -1.4 11 16.6 SSE 13 24 7 13 1007.3 1005.2 0.0

Other Formats:

Comma delimited format used in spreadsheet applications
http://www.bom.gov.au/fwo/IDW60801/IDW60801.95634.axf

JavaScript Object Notation format (JSON) in row-major order
http://www.bom.gov.au/fwo/IDW60801/IDW60801.95634.json